sensor_id;sensor_type;location;lat;lon;timestamp;pressure;altitude;pressure_sealevel;temperature;humidity
64243;BME280;50573;51.512;5.386;2023-01-10T00:05:34;101002.09;;;4.74;100.00
64243;BME280;50573;51.512;5.386;2023-01-10T00:15:39;101035.25;;;4.74;100.00
64243;BME280;50573;51.512;5.386;2023-01-10T00:25:42;101044.53;;;4.73;100.00
64243;BME280;50573;51.512;5.386;2023-01-10T00:35:46;101071.88;;;4.72;100.00
64243;BME280;50573;51.512;5.386;2023-01-10T00:45:49;101081.13;;;4.53;100.00
64243;BME280;50573;51.512;5.386;2023-01-10T00:55:54;101087.25;;;4.57;100.00
64243;BME280;50573;51.512;5.386;2023-01-10T01:05:57;101086.13;;;4.72;100.00
64243;BME280;50573;51.512;5.386;2023-01-10T01:16:06;101106.56;;;4.73;100.00
64243;BME280;50573;51.512;5.386;2023-01-10T01:26:09;101138.94;;;4.66;100.00
64243;BME280;50573;51.512;5.386;2023-01-10T01:36:14;101141.63;;;4.77;100.00
64243;BME280;50573;51.512;5.386;2023-01-10T01:46:17;101155.16;;;4.94;100.00
64243;BME280;50573;51.512;5.386;2023-01-10T01:56:28;101170.19;;;5.16;100.00
64243;BME280;50573;51.512;5.386;2023-01-10T02:06:32;101169.44;;;5.19;100.00
64243;BME280;50573;51.512;5.386;2023-01-10T02:16:37;101184.84;;;5.22;100.00
64243;BME280;50573;51.512;5.386;2023-01-10T02:37:35;101170.94;;;5.20;100.00
64243;BME280;50573;51.512;5.386;2023-01-10T02:47:40;101179.06;;;5.13;100.00
64243;BME280;50573;51.512;5.386;2023-01-10T02:57:49;101196.41;;;4.91;100.00
64243;BME280;50573;51.512;5.386;2023-01-10T03:08:17;101208.72;;;4.71;100.00
64243;BME280;50573;51.512;5.386;2023-01-10T03:18:29;101226.41;;;4.69;100.00
64243;BME280;50573;51.512;5.386;2023-01-10T03:28:38;101243.44;;;4.90;100.00
64243;BME280;50573;51.512;5.386;2023-01-10T03:38:50;101260.06;;;5.06;100.00
64243;BME280;50573;51.512;5.386;2023-01-10T03:48:55;101263.56;;;5.10;100.00
64243;BME280;50573;51.512;5.386;2023-01-10T03:59:00;101275.13;;;5.21;100.00
64243;BME280;50573;51.512;5.386;2023-01-10T04:09:04;101287.09;;;5.17;100.00
64243;BME280;50573;51.512;5.386;2023-01-10T04:19:09;101310.97;;;5.04;100.00
64243;BME280;50573;51.512;5.386;2023-01-10T04:29:12;101322.13;;;4.99;100.00
64243;BME280;50573;51.512;5.386;2023-01-10T04:39:17;101309.41;;;5.03;100.00
64243;BME280;50573;51.512;5.386;2023-01-10T04:49:20;101324.47;;;5.01;100.00
64243;BME280;50573;51.512;5.386;2023-01-10T04:59:25;101322.94;;;5.07;100.00
64243;BME280;50573;51.512;5.386;2023-01-10T05:09:28;101326.03;;;5.09;100.00
64243;BME280;50573;51.512;5.386;2023-01-10T05:19:32;101380.03;;;5.12;100.00
64243;BME280;50573;51.512;5.386;2023-01-10T05:29:35;101388.19;;;5.26;100.00
64243;BME280;50573;51.512;5.386;2023-01-10T05:39:39;101388.94;;;5.27;100.00
64243;BME280;50573;51.512;5.386;2023-01-10T05:49:44;101398.25;;;5.36;100.00
64243;BME280;50573;51.512;5.386;2023-01-10T05:59:48;101412.53;;;5.44;100.00
64243;BME280;50573;51.512;5.386;2023-01-10T06:09:51;101423.38;;;5.51;100.00
64243;BME280;50573;51.512;5.386;2023-01-10T06:19:55;101414.09;;;5.48;100.00
64243;BME280;50573;51.512;5.386;2023-01-10T06:29:58;101434.53;;;5.42;100.00
64243;BME280;50573;51.512;5.386;2023-01-10T06:40:04;101437.19;;;5.32;100.00
64243;BME280;50573;51.512;5.386;2023-01-10T06:50:09;101448.31;;;5.16;100.00
64243;BME280;50573;51.512;5.386;2023-01-10T07:00:14;101470.16;;;4.87;100.00
64243;BME280;50573;51.512;5.386;2023-01-10T07:10:17;101484.72;;;4.75;100.00
64243;BME280;50573;51.512;5.386;2023-01-10T07:20:22;101506.75;;;4.81;100.00
64243;BME280;50573;51.512;5.386;2023-01-10T07:30:25;101521.41;;;4.83;100.00
64243;BME280;50573;51.512;5.386;2023-01-10T07:40:29;101557.72;;;4.89;100.00
64243;BME280;50573;51.512;5.386;2023-01-10T07:50:34;101553.78;;;4.83;100.00
64243;BME280;50573;51.512;5.386;2023-01-10T08:00:38;101561.88;;;4.83;100.00
64243;BME280;50573;51.512;5.386;2023-01-10T08:10:42;101557.53;;;4.65;100.00
64243;BME280;50573;51.512;5.386;2023-01-10T08:20:47;101542.84;;;4.62;100.00
64243;BME280;50573;51.512;5.386;2023-01-10T08:30:50;101553.25;;;4.60;100.00
64243;BME280;50573;51.512;5.386;2023-01-10T08:40:58;101559.88;;;4.70;100.00
64243;BME280;50573;51.512;5.386;2023-01-10T08:51:04;101555.78;;;4.86;100.00
64243;BME280;50573;51.512;5.386;2023-01-10T09:01:09;101546.56;;;4.98;100.00
64243;BME280;50573;51.512;5.386;2023-01-10T09:11:13;101539.34;;;5.12;99.80
64243;BME280;50573;51.512;5.386;2023-01-10T09:21:18;101542.94;;;5.34;99.15
64243;BME280;50573;51.512;5.386;2023-01-10T09:31:21;101531.41;;;5.40;98.46
64243;BME280;50573;51.512;5.386;2023-01-10T09:41:38;101534.53;;;5.53;97.47
64243;BME280;50573;51.512;5.386;2023-01-10T09:51:49;101536.56;;;5.74;96.37
64243;BME280;50573;51.512;5.386;2023-01-10T10:01:59;101526.22;;;5.90;95.25
64243;BME280;50573;51.512;5.386;2023-01-10T10:12:22;101528.53;;;6.02;95.26
64243;BME280;50573;51.512;5.386;2023-01-10T10:22:36;101496.91;;;6.13;94.20
64243;BME280;50573;51.512;5.386;2023-01-10T10:32:52;101506.97;;;6.30;94.27
64243;BME280;50573;51.512;5.386;2023-01-10T10:43:14;101480.69;;;6.48;93.95
64243;BME280;50573;51.512;5.386;2023-01-10T10:53:21;101461.31;;;6.60;93.51
64243;BME280;50573;51.512;5.386;2023-01-10T11:03:30;101446.22;;;6.80;93.06
64243;BME280;50573;51.512;5.386;2023-01-10T11:13:42;101436.53;;;6.86;92.50
64243;BME280;50573;51.512;5.386;2023-01-10T11:23:51;101433.78;;;6.96;91.74
64243;BME280;50573;51.512;5.386;2023-01-10T11:33:55;101421.72;;;7.15;91.20
64243;BME280;50573;51.512;5.386;2023-01-10T11:54:28;101417.41;;;7.25;90.90
64243;BME280;50573;51.512;5.386;2023-01-10T12:04:33;101406.13;;;7.44;91.69
64243;BME280;50573;51.512;5.386;2023-01-10T12:14:43;101385.97;;;7.41;90.23
64243;BME280;50573;51.512;5.386;2023-01-10T12:24:47;101372.06;;;7.39;90.49
64243;BME280;50573;51.512;5.386;2023-01-10T12:34:58;101350.78;;;7.38;89.38
64243;BME280;50573;51.512;5.386;2023-01-10T12:45:05;101336.38;;;7.48;89.67
64243;BME280;50573;51.512;5.386;2023-01-10T12:55:13;101327.50;;;7.47;88.77
64243;BME280;50573;51.512;5.386;2023-01-10T13:05:20;101307.63;;;7.61;87.88
64243;BME280;50573;51.512;5.386;2023-01-10T13:15:29;101282.78;;;7.69;87.16
64243;BME280;50573;51.512;5.386;2023-01-10T13:25:35;101261.03;;;7.76;86.58
64243;BME280;50573;51.512;5.386;2023-01-10T13:35:42;101251.97;;;7.90;86.15
64243;BME280;50573;51.512;5.386;2023-01-10T13:45:46;101239.84;;;8.01;85.46
64243;BME280;50573;51.512;5.386;2023-01-10T13:55:54;101234.25;;;7.78;89.48
64243;BME280;50573;51.512;5.386;2023-01-10T14:05:57;101219.38;;;7.56;93.01
64243;BME280;50573;51.512;5.386;2023-01-10T14:16:02;101199.34;;;7.47;95.11
64243;BME280;50573;51.512;5.386;2023-01-10T14:26:17;101173.53;;;7.28;97.24
64243;BME280;50573;51.512;5.386;2023-01-10T14:36:25;101164.06;;;7.06;99.46
64243;BME280;50573;51.512;5.386;2023-01-10T14:46:32;101113.84;;;6.98;100.00
64243;BME280;50573;51.512;5.386;2023-01-10T14:56:43;101099.25;;;6.85;100.00
64243;BME280;50573;51.512;5.386;2023-01-10T15:06:52;101088.94;;;6.66;100.00
64243;BME280;50573;51.512;5.386;2023-01-10T15:16:59;101069.75;;;6.50;100.00
64243;BME280;50573;51.512;5.386;2023-01-10T15:27:05;101047.34;;;6.42;100.00
64243;BME280;50573;51.512;5.386;2023-01-10T15:37:18;101020.84;;;6.20;100.00
64243;BME280;50573;51.512;5.386;2023-01-10T15:47:49;101014.66;;;6.23;100.00
64243;BME280;50573;51.512;5.386;2023-01-10T15:57:54;100987.28;;;6.14;100.00
64243;BME280;50573;51.512;5.386;2023-01-10T16:07:58;100962.19;;;6.10;100.00
64243;BME280;50573;51.512;5.386;2023-01-10T16:18:03;100955.22;;;6.16;100.00
64243;BME280;50573;51.512;5.386;2023-01-10T16:28:09;100951.38;;;6.10;100.00
64243;BME280;50573;51.512;5.386;2023-01-10T16:38:15;100925.50;;;6.09;100.00
64243;BME280;50573;51.512;5.386;2023-01-10T16:48:19;100947.91;;;6.13;100.00
64243;BME280;50573;51.512;5.386;2023-01-10T16:58:24;100933.50;;;6.23;100.00
64243;BME280;50573;51.512;5.386;2023-01-10T17:08:27;100926.91;;;6.27;100.00
64243;BME280;50573;51.512;5.386;2023-01-10T17:18:31;100901.38;;;6.32;100.00
64243;BME280;50573;51.512;5.386;2023-01-10T17:28:34;100887.31;;;6.44;100.00
64243;BME280;50573;51.512;5.386;2023-01-10T17:38:38;100866.72;;;6.57;100.00
64243;BME280;50573;51.512;5.386;2023-01-10T17:48:43;100857.25;;;6.72;100.00
64243;BME280;50573;51.512;5.386;2023-01-10T17:58:48;100852.13;;;6.81;100.00
64243;BME280;50573;51.512;5.386;2023-01-10T18:08:52;100836.44;;;6.99;100.00
64243;BME280;50573;51.512;5.386;2023-01-10T18:18:57;100819.28;;;7.09;100.00
64243;BME280;50573;51.512;5.386;2023-01-10T18:29:00;100797.75;;;7.25;100.00
64243;BME280;50573;51.512;5.386;2023-01-10T18:39:04;100776.69;;;7.36;100.00
64243;BME280;50573;51.512;5.386;2023-01-10T18:49:08;100778.13;;;7.44;100.00
64243;BME280;50573;51.512;5.386;2023-01-10T18:59:13;100765.25;;;7.52;100.00
64243;BME280;50573;51.512;5.386;2023-01-10T19:09:16;100761.75;;;7.51;100.00
64243;BME280;50573;51.512;5.386;2023-01-10T19:19:21;100750.81;;;7.58;100.00
64243;BME280;50573;51.512;5.386;2023-01-10T19:29:24;100745.53;;;7.71;100.00
64243;BME280;50573;51.512;5.386;2023-01-10T19:39:29;100725.56;;;7.84;100.00
64243;BME280;50573;51.512;5.386;2023-01-10T19:49:32;100723.69;;;8.01;100.00
64243;BME280;50573;51.512;5.386;2023-01-10T19:59:38;100710.13;;;8.20;100.00
64243;BME280;50573;51.512;5.386;2023-01-10T20:09:42;100711.22;;;8.26;100.00
64243;BME280;50573;51.512;5.386;2023-01-10T20:19:47;100699.03;;;8.34;100.00
64243;BME280;50573;51.512;5.386;2023-01-10T20:29:50;100676.72;;;8.43;100.00
64243;BME280;50573;51.512;5.386;2023-01-10T20:39:55;100666.09;;;8.52;100.00
64243;BME280;50573;51.512;5.386;2023-01-10T20:49:58;100672.16;;;8.40;100.00
64243;BME280;50573;51.512;5.386;2023-01-10T21:00:04;100658.84;;;8.46;100.00
64243;BME280;50573;51.512;5.386;2023-01-10T21:10:08;100639.50;;;8.43;100.00
64243;BME280;50573;51.512;5.386;2023-01-10T21:20:12;100618.06;;;8.49;100.00
64243;BME280;50573;51.512;5.386;2023-01-10T21:30:16;100606.81;;;8.67;100.00
64243;BME280;50573;51.512;5.386;2023-01-10T21:40:21;100592.72;;;8.72;100.00
64243;BME280;50573;51.512;5.386;2023-01-10T21:50:25;100574.88;;;8.87;100.00
64243;BME280;50573;51.512;5.386;2023-01-10T22:00:31;100580.63;;;9.05;100.00
64243;BME280;50573;51.512;5.386;2023-01-10T22:10:34;100559.63;;;9.21;100.00
64243;BME280;50573;51.512;5.386;2023-01-10T22:20:42;100549.75;;;9.27;100.00
64243;BME280;50573;51.512;5.386;2023-01-10T22:30:45;100545.56;;;9.39;100.00
64243;BME280;50573;51.512;5.386;2023-01-10T22:40:50;100542.78;;;9.55;100.00
64243;BME280;50573;51.512;5.386;2023-01-10T22:50:53;100517.88;;;9.56;100.00
64243;BME280;50573;51.512;5.386;2023-01-10T23:00:57;100527.16;;;9.59;100.00
64243;BME280;50573;51.512;5.386;2023-01-10T23:11:00;100511.16;;;9.61;100.00
64243;BME280;50573;51.512;5.386;2023-01-10T23:21:07;100500.31;;;9.73;100.00
64243;BME280;50573;51.512;5.386;2023-01-10T23:31:10;100499.56;;;9.86;100.00
64243;BME280;50573;51.512;5.386;2023-01-10T23:41:15;100484.22;;;10.04;100.00
64243;BME280;50573;51.512;5.386;2023-01-10T23:51:21;100476.84;;;10.17;100.00
